Time;durP1;ratioP1;P1;durP2;ratioP2;P2;SDS_P1;SDS_P2;PMS_P1;PMS_P2;Temp;Humidity;BMP_temperature;BMP_pressure;BME280_temperature;BME280_humidity;BME280_pressure;Samples;Min_cycle;Max_cycle;Signal;HPM_P1;HPM_P2
2022/02/02 00:02:07;;;;;;;;;;;7.00;60.10;;;;;;5075611;28;20414;-72
2022/02/02 00:04:36;;;;;;;1.02;0.80;;;7.10;59.70;;;;;;5075050;28;19916;-72
2022/02/02 00:07:10;;;;;;;0.75;0.30;;;7.00;61.70;;;;;;5074700;28;20564;-72
2022/02/02 00:09:37;;;;;;;0.35;0.35;;;6.90;63.50;;;;;;5075316;28;20029;-72
2022/02/02 00:17:13;;;;;;;0.47;0.40;;;7.00;64.70;;;;;;5074911;28;20186;-73
2022/02/02 00:19:57;;;;;;;1.00;0.70;;;6.90;63.20;;;;;;5075057;28;20068;-73
2022/02/02 00:22:29;;;;;;;0.50;0.50;;;7.10;62.90;;;;;;5075037;28;20044;-72
2022/02/02 00:27:30;;;;;;;0.13;0.13;;;7.10;61.50;;;;;;5074574;28;20028;-73
2022/02/02 00:30:00;;;;;;;1.00;0.80;;;6.90;66.80;;;;;;5074497;28;20025;-73
2022/02/02 00:33:18;;;;;;;1.67;1.13;;;7.00;64.50;;;;;;5074692;28;20048;-73
2022/02/02 00:35:16;;;;;;;0.90;0.30;;;7.10;65.10;;;;;;5056748;28;20510;-73
2022/02/02 00:37:42;;;;;;;0.43;0.40;;;7.10;63.00;;;;;;5074288;28;20029;-72
2022/02/02 00:40:09;;;;;;;0.35;0.20;;;7.20;60.90;;;;;;5074068;28;20025;-73
2022/02/02 00:42:35;;;;;;;0.20;0.20;;;7.20;57.80;;;;;;5074501;28;20055;-72
2022/02/02 00:45:01;;;;;;;0.90;0.30;;;7.20;58.20;;;;;;5073394;28;20032;-72
2022/02/02 00:47:33;;;;;;;0.10;0.10;;;7.20;59.50;;;;;;5074908;28;20086;-72
2022/02/02 00:49:59;;;;;;;0.60;0.30;;;7.30;61.30;;;;;;5073803;28;20025;-72
2022/02/02 00:52:26;;;;;;;0.73;0.30;;;7.30;58.80;;;;;;5074879;28;20041;-72
2022/02/02 00:54:52;;;;;;;0.32;0.30;;;7.30;59.10;;;;;;5074183;28;20074;-72
2022/02/02 00:57:18;;;;;;;0.30;0.20;;;7.30;58.90;;;;;;5074416;28;20032;-72
2022/02/02 00:59:43;;;;;;;0.20;0.20;;;7.30;59.10;;;;;;5074835;28;20502;-73
2022/02/02 01:02:12;;;;;;;0.35;0.35;;;7.20;59.40;;;;;;5074584;28;20074;-72
2022/02/02 01:04:38;;;;;;;0.63;0.20;;;7.30;56.80;;;;;;5074316;28;20041;-72
2022/02/02 01:09:51;;;;;;;0.35;0.30;;;7.30;57.30;;;;;;5074446;28;20025;-72
2022/02/02 01:20:17;;;;;;;0.20;0.20;;;7.30;60.70;;;;;;5074205;28;20051;-73
2022/02/02 01:28:12;;;;;;;0.98;0.70;;;7.30;61.90;;;;;;5074076;28;20071;-73
2022/02/02 01:30:38;;;;;;;4.15;2.90;;;7.30;60.20;;;;;;5075072;28;20090;-73
2022/02/02 01:33:04;;;;;;;1.02;0.20;;;7.30;61.10;;;;;;5074368;28;20094;-73
2022/02/02 01:35:31;;;;;;;0.50;0.40;;;7.30;59.40;;;;;;5074308;28;20395;-72
2022/02/02 01:37:57;;;;;;;0.30;0.30;;;7.20;62.80;;;;;;5074477;28;20036;-72
2022/02/02 01:40:29;;;;;;;0.20;0.20;;;7.10;62.80;;;;;;5074983;28;20115;-72
2022/02/02 01:43:06;;;;;;;0.20;0.10;;;7.30;61.70;;;;;;5074005;28;20390;-73
2022/02/02 01:45:37;;;;;;;0.22;0.22;;;7.20;62.80;;;;;;5074511;28;20040;-72
2022/02/02 01:53:46;;;;;;;0.82;0.77;;;7.10;65.10;;;;;;5074379;28;20036;-73
2022/02/02 01:56:02;;;;;;;0.50;0.30;;;7.10;68.90;;;;;;5073943;28;20041;-73
2022/02/02 02:01:13;;;;;;;0.20;0.20;;;7.60;57.80;;;;;;5077546;28;20066;-73
2022/02/02 02:03:39;;;;;;;0.10;0.10;;;7.30;59.30;;;;;;5077595;28;20118;-72
2022/02/02 02:06:06;;;;;;;0.10;0.10;;;7.30;60.80;;;;;;5077754;28;20032;-73
2022/02/02 02:08:35;;;;;;;0.20;0.20;;;7.20;65.50;;;;;;5077523;28;20479;-72
2022/02/02 02:11:02;;;;;;;0.47;0.25;;;7.20;64.80;;;;;;5077403;28;20064;-72
2022/02/02 02:16:07;;;;;;;0.43;0.20;;;7.30;69.20;;;;;;5077516;28;20060;-72
2022/02/02 02:18:33;;;;;;;0.20;0.20;;;7.40;68.70;;;;;;5077048;28;20072;-73
2022/02/02 02:21:00;;;;;;;0.20;0.20;;;7.40;65.80;;;;;;5077575;28;20067;-73
2022/02/02 02:23:26;;;;;;;0.10;0.10;;;7.50;65.80;;;;;;5077034;28;20040;-73
2022/02/02 02:25:52;;;;;;;0.32;0.28;;;7.40;66.80;;;;;;5077072;28;20107;-73
2022/02/02 02:28:35;;;;;;;0.30;0.20;;;7.40;64.20;;;;;;5077066;28;20055;-73
2022/02/02 02:31:09;;;;;;;0.20;0.20;;;7.40;66.70;;;;;;5077216;28;20040;-73
2022/02/02 02:34:02;;;;;;;0.10;0.10;;;7.50;66.70;;;;;;5076538;28;20032;-73
2022/02/02 02:58:23;;;;;;;0.10;0.10;;;7.50;61.10;;;;;;5076470;28;20039;-72
2022/02/02 04:00:00;;;;;;;0.32;0.30;;;7.50;64.90;;;;;;5075373;28;20029;-72
2022/02/02 04:07:54;;;;;;;0.73;0.45;;;7.50;62.60;;;;;;5075005;28;20064;-72
2022/02/02 04:10:20;;;;;;;0.25;0.20;;;7.50;61.20;;;;;;5075884;28;20024;-72
2022/02/02 04:13:08;;;;;;;0.60;0.50;;;7.50;63.30;;;;;;5074736;28;20044;-72
2022/02/02 04:56:26;;;;;;;0.20;0.10;;;7.50;65.30;;;;;;5074273;28;20029;-73
2022/02/02 04:59:21;;;;;;;0.30;0.30;;;7.40;70.90;;;;;;5073878;28;20036;-73
2022/02/02 05:07:23;;;;;;;0.22;0.22;;;7.60;66.40;;;;;;5073959;28;20055;-73
2022/02/02 05:15:46;;;;;;;0.10;0.10;;;7.40;67.10;;;;;;5074160;28;20536;-73
2022/02/02 05:18:20;;;;;;;0.20;0.20;;;7.60;76.10;;;;;;5073223;28;20048;-73
2022/02/02 05:50:30;;;;;;;0.13;0.13;;;7.50;69.00;;;;;;5077399;28;20031;-72
2022/02/02 05:52:56;;;;;;;0.10;0.10;;;7.50;71.70;;;;;;5057756;28;20114;-72
2022/02/02 05:55:22;;;;;;;0.20;0.20;;;7.50;69.80;;;;;;5058161;28;20032;-72
2022/02/02 05:57:49;;;;;;;0.20;0.20;;;7.50;69.40;;;;;;5057268;28;20498;-72
2022/02/02 06:00:16;;;;;;;0.20;0.20;;;7.50;69.60;;;;;;5058216;28;20037;-72
2022/02/02 06:02:46;;;;;;;0.60;0.52;;;7.60;66.40;;;;;;5057599;28;20029;-72
2022/02/02 06:05:13;;;;;;;0.10;0.10;;;7.60;69.30;;;;;;5057534;28;20114;-72
2022/02/02 06:07:42;;;;;;;0.20;0.20;;;7.50;67.40;;;;;;5057568;28;20056;-72
2022/02/02 06:10:13;;;;;;;0.10;0.10;;;7.40;68.30;;;;;;5057695;28;20075;-72
2022/02/02 06:12:42;;;;;;;0.30;0.22;;;7.60;63.70;;;;;;5057459;28;20045;-72
2022/02/02 06:15:12;;;;;;;0.20;0.20;;;7.60;62.10;;;;;;5057617;28;20071;-72
2022/02/02 06:17:52;;;;;;;0.10;0.10;;;7.60;63.00;;;;;;5057637;28;20029;-72
2022/02/02 06:20:19;;;;;;;0.20;0.20;;;7.50;63.60;;;;;;5058164;28;20029;-72
2022/02/02 06:22:59;;;;;;;0.22;0.22;;;7.50;67.20;;;;;;5056979;28;20295;-72
2022/02/02 06:25:32;;;;;;;0.47;0.25;;;7.60;62.80;;;;;;5058015;28;20044;-72
2022/02/02 06:28:04;;;;;;;0.50;0.50;;;7.60;57.70;;;;;;5057361;28;20048;-72
2022/02/02 06:30:31;;;;;;;0.10;0.10;;;7.60;59.00;;;;;;5057689;28;20263;-72
2022/02/02 06:33:03;;;;;;;0.20;0.20;;;7.70;54.20;;;;;;5057280;28;20052;-72
2022/02/02 06:35:29;;;;;;;0.20;0.20;;;7.60;54.60;;;;;;5057103;28;20029;-72
2022/02/02 06:37:55;;;;;;;0.15;0.15;;;7.60;56.20;;;;;;5057278;28;20040;-72
2022/02/02 06:40:23;;;;;;;1.17;0.50;;;7.50;58.20;;;;;;5066633;28;20121;-72
2022/02/02 06:42:52;;;;;;;0.20;0.20;;;7.60;55.60;;;;;;5076601;28;20036;-72
2022/02/02 06:45:19;;;;;;;0.20;0.20;;;7.70;53.60;;;;;;5076829;28;20076;-72
2022/02/02 06:47:46;;;;;;;0.55;0.38;;;7.60;52.90;;;;;;5077258;28;20123;-72
2022/02/02 06:50:20;;;;;;;0.40;0.30;;;7.70;51.00;;;;;;5076652;28;20024;-72
2022/02/02 06:53:06;;;;;;;0.10;0.10;;;7.70;53.20;;;;;;5063479;28;20080;-72
2022/02/02 06:55:45;;;;;;;0.30;0.30;;;7.70;51.80;;;;;;5076545;28;20111;-72
2022/02/02 06:59:05;;;;;;;0.35;0.17;;;7.70;53.70;;;;;;5076463;28;20032;-72
2022/02/02 07:04:38;;;;;;;0.20;0.20;;;7.40;64.70;;;;;;5076755;28;20036;-72
2022/02/02 07:07:18;;;;;;;0.55;0.50;;;7.40;71.70;;;;;;5076620;28;20048;-72
2022/02/02 07:12:43;;;;;;;0.68;0.50;;;7.60;61.20;;;;;;5057671;28;20423;-72
2022/02/02 07:20:18;;;;;;;1.27;0.20;;;7.70;57.80;;;;;;5055946;28;20024;-72
2022/02/02 07:29:08;;;;;;;0.20;0.20;;;7.70;59.40;;;;;;5023383;28;20361;-72
2022/02/02 07:34:03;;;;;;;0.28;0.20;;;7.70;57.30;;;;;;5075208;28;20035;-72
2022/02/02 07:36:37;;;;;;;0.75;0.55;;;7.80;54.30;;;;;;5075843;28;20024;-72
2022/02/02 07:39:07;;;;;;;0.38;0.32;;;7.80;53.20;;;;;;5074556;28;20035;-73
2022/02/02 07:41:36;;;;;;;0.55;0.40;;;7.90;50.00;;;;;;5075092;28;20093;-72
2022/02/02 07:44:30;;;;;;;0.20;0.20;;;7.80;52.00;;;;;;5064331;28;20041;-73
2022/02/02 07:47:00;;;;;;;0.30;0.20;;;7.80;54.10;;;;;;5066742;28;20036;-73
2022/02/02 07:49:33;;;;;;;0.22;0.22;;;7.70;54.80;;;;;;5054770;28;20365;-73
2022/02/02 07:51:59;;;;;;;0.13;0.13;;;7.80;56.80;;;;;;5057829;28;20385;-73
2022/02/02 07:54:32;;;;;;;0.22;0.20;;;7.80;57.20;;;;;;5074017;28;20032;-72
2022/02/02 07:56:58;;;;;;;0.20;0.20;;;7.80;58.70;;;;;;5069914;28;20029;-73
2022/02/02 08:02:12;;;;;;;0.43;0.32;;;7.90;54.10;;;;;;5063032;28;20047;-73
2022/02/02 08:04:38;;;;;;;0.10;0.10;;;7.80;51.60;;;;;;5065415;28;20174;-73
2022/02/02 08:07:08;;;;;;;0.40;0.40;;;7.80;52.70;;;;;;5053153;28;20097;-73
2022/02/02 08:09:39;;;;;;;0.15;0.10;;;7.70;53.40;;;;;;5054494;28;20035;-73
2022/02/02 08:12:14;;;;;;;0.30;0.20;;;7.90;51.10;;;;;;5054959;28;20068;-73
2022/02/02 08:14:41;;;;;;;1.27;0.20;;;7.90;49.50;;;;;;5054565;28;20094;-73
2022/02/02 08:17:07;;;;;;;0.30;0.30;;;8.00;50.60;;;;;;5061492;28;20028;-72
2022/02/02 08:19:34;;;;;;;0.30;0.30;;;8.10;48.30;;;;;;5067268;28;20090;-72
2022/02/02 08:22:00;;;;;;;0.20;0.20;;;8.00;49.80;;;;;;5073250;28;20044;-72
2022/02/02 08:24:27;;;;;;;0.30;0.30;;;8.10;49.90;;;;;;5073767;28;20495;-72
2022/02/02 08:26:55;;;;;;;0.10;0.10;;;8.00;49.70;;;;;;5074441;28;20359;-72
2022/02/02 08:29:23;;;;;;;0.10;0.10;;;8.10;47.70;;;;;;5072665;28;20039;-72
2022/02/02 08:31:49;;;;;;;0.20;0.20;;;8.10;45.40;;;;;;5068611;28;20032;-72
2022/02/02 08:34:15;;;;;;;0.32;0.32;;;8.20;43.70;;;;;;5070553;28;20067;-71
2022/02/02 08:36:44;;;;;;;0.20;0.20;;;8.20;43.00;;;;;;5068880;28;20123;-71
2022/02/02 08:39:23;;;;;;;0.20;0.20;;;8.30;42.50;;;;;;5054115;28;20044;-71
2022/02/02 08:41:54;;;;;;;0.30;0.30;;;8.20;42.60;;;;;;5064648;28;20089;-73
2022/02/02 08:44:29;;;;;;;0.25;0.25;;;8.20;41.70;;;;;;5073830;28;20028;-71
2022/02/02 08:47:03;;;;;;;0.10;0.10;;;8.20;43.20;;;;;;5074213;28;20045;-72
2022/02/02 08:49:33;;;;;;;0.10;0.10;;;8.30;41.90;;;;;;5074326;28;20025;-72
2022/02/02 08:52:01;;;;;;;0.20;0.20;;;8.40;39.50;;;;;;5073962;28;20041;-72
2022/02/02 08:54:36;;;;;;;0.73;0.70;;;8.30;39.90;;;;;;5059094;28;20056;-72
2022/02/02 08:57:24;;;;;;;0.17;0.17;;;8.30;39.50;;;;;;5054467;28;20098;-72
2022/02/02 08:59:58;;;;;;;0.20;0.20;;;8.30;43.10;;;;;;5054781;28;20094;-72
2022/02/02 09:02:29;;;;;;;0.15;0.15;;;8.40;38.20;;;;;;5053681;28;20067;-72
2022/02/02 09:07:39;;;;;;;0.20;0.20;;;8.40;36.80;;;;;;5057760;28;20064;-72
2022/02/02 09:10:08;;;;;;;0.10;0.10;;;8.50;41.40;;;;;;5059186;28;20037;-72
2022/02/02 09:26:01;;;;;;;0.38;0.32;;;8.60;40.00;;;;;;5058557;28;20048;-72
2022/02/02 09:34:02;;;;;;;0.22;0.20;;;8.70;38.50;;;;;;5072046;28;20071;-70
2022/02/02 09:36:31;;;;;;;0.45;0.20;;;8.80;38.30;;;;;;5072540;28;20032;-70
2022/02/02 09:39:00;;;;;;;0.40;0.30;;;8.80;37.50;;;;;;5077850;28;20340;-70
2022/02/02 09:41:37;;;;;;;0.30;0.30;;;8.70;36.70;;;;;;5078702;28;20107;-71
2022/02/02 09:44:06;;;;;;;0.47;0.20;;;8.80;38.60;;;;;;5077004;28;20040;-71
2022/02/02 09:46:42;;;;;;;0.43;0.40;;;8.80;36.50;;;;;;5078407;28;20032;-71
2022/02/02 09:49:16;;;;;;;0.52;0.30;;;8.80;35.80;;;;;;5078794;28;20036;-70
2022/02/02 09:51:48;;;;;;;0.20;0.20;;;8.90;35.30;;;;;;5078368;28;20051;-70
2022/02/02 09:54:26;;;;;;;0.60;0.40;;;8.80;34.80;;;;;;5077423;28;20391;-70
2022/02/02 10:02:31;;;;;;;0.20;0.20;;;9.00;33.20;;;;;;5057850;28;20514;-72
2022/02/02 10:05:10;;;;;;;0.30;0.30;;;9.00;32.60;;;;;;5058273;28;20039;-71
2022/02/02 10:15:22;;;;;;;0.38;0.38;;;9.00;31.60;;;;;;5057639;28;20037;-71
2022/02/02 10:17:57;;;;;;;1.23;1.10;;;9.10;31.60;;;;;;5056072;28;20037;-71
2022/02/02 10:20:25;;;;;;;0.35;0.35;;;9.10;30.90;;;;;;5056678;28;20056;-71
2022/02/02 10:22:53;;;;;;;0.43;0.38;;;9.10;30.30;;;;;;5056640;28;20041;-71
2022/02/02 10:25:33;;;;;;;0.30;0.30;;;9.10;29.40;;;;;;5057530;28;20033;-71
2022/02/02 10:28:12;;;;;;;1.38;1.02;;;9.20;29.50;;;;;;5057839;28;20155;-71
2022/02/02 10:30:40;;;;;;;3.60;0.55;;;9.20;29.20;;;;;;5056926;28;20036;-71
2022/02/02 10:33:14;;;;;;;1.10;0.40;;;9.30;28.70;;;;;;5057262;28;20040;-71
2022/02/02 10:35:46;;;;;;;0.45;0.43;;;9.30;27.80;;;;;;5057286;28;20036;-71
2022/02/02 10:38:15;;;;;;;1.13;0.68;;;9.30;27.80;;;;;;5056905;28;20032;-71
2022/02/02 10:40:56;;;;;;;0.30;0.30;;;9.20;27.70;;;;;;5057082;28;20036;-71
2022/02/02 10:43:32;;;;;;;0.47;0.20;;;9.20;28.10;;;;;;5057111;28;20111;-71
2022/02/02 10:46:11;;;;;;;0.60;0.30;;;9.20;27.70;;;;;;5067819;28;20028;-71
2022/02/02 10:48:51;;;;;;;0.20;0.20;;;9.30;27.10;;;;;;5056146;28;20040;-71
2022/02/02 10:51:33;;;;;;;0.30;0.30;;;9.30;25.20;;;;;;5057266;28;20028;-71
2022/02/02 10:56:48;;;;;;;0.63;0.50;;;9.30;25.00;;;;;;5054394;28;20037;-71
2022/02/02 11:07:00;;;;;;;0.45;0.30;;;9.30;25.30;;;;;;5056422;28;20056;-72
2022/02/02 11:09:27;;;;;;;0.55;0.35;;;9.40;24.10;;;;;;5093933;28;20024;-71
2022/02/02 11:11:56;;;;;;;0.22;0.22;;;9.40;23.90;;;;;;5096521;28;20060;-71
2022/02/02 11:14:30;;;;;;;0.77;0.45;;;9.50;24.00;;;;;;5096284;28;20065;-71
2022/02/02 11:17:13;;;;;;;0.52;0.40;;;9.40;26.00;;;;;;5096263;28;20059;-71
2022/02/02 11:19:40;;;;;;;0.22;0.22;;;9.40;23.80;;;;;;5096157;28;20032;-71
2022/02/02 11:22:33;;;;;;;0.60;0.30;;;9.40;23.90;;;;;;5096261;28;20047;-71
2022/02/02 11:25:03;;;;;;;0.38;0.38;;;9.50;23.50;;;;;;5085525;28;20062;-71
2022/02/02 11:27:34;;;;;;;0.30;0.30;;;9.50;23.30;;;;;;5055698;28;20484;-71
2022/02/02 11:30:05;;;;;;;;;;;9.50;22.50;;;;;;5055709;28;20472;-71
2022/02/02 11:32:42;;;;;;;0.28;0.28;;;9.50;22.50;;;;;;5055673;28;19905;-71
2022/02/02 11:35:49;;;;;;;0.50;0.50;;;9.50;22.40;;;;;;5055600;28;20082;-71
2022/02/02 11:38:35;;;;;;;0.35;0.35;;;9.40;22.10;;;;;;5026932;28;20037;-72
2022/02/02 11:41:11;;;;;;;0.45;0.30;;;9.50;22.20;;;;;;5053303;28;20044;-72
2022/02/02 11:44:07;;;;;;;0.20;0.20;;;9.50;20.30;;;;;;5054739;28;20506;-72
2022/02/02 11:47:09;;;;;;;0.40;0.40;;;9.50;18.40;;;;;;5055678;28;20068;-72
2022/02/02 11:49:54;;;;;;;0.68;0.40;;;9.50;18.30;;;;;;5054706;28;20036;-72
2022/02/02 11:52:38;;;;;;;1.08;0.45;;;9.50;18.00;;;;;;5061862;28;20037;-72
2022/02/02 11:55:27;;;;;;;0.68;0.50;;;9.40;18.70;;;;;;5058309;28;20106;-72
2022/02/02 11:57:57;;;;;;;0.43;0.40;;;9.40;19.60;;;;;;5055411;28;20071;-72
2022/02/02 12:03:32;;;;;;;0.20;0.20;;;9.40;18.90;;;;;;5055304;28;20041;-72
2022/02/02 12:08:55;;;;;;;0.30;0.30;;;9.40;17.90;;;;;;5046197;28;20037;-72
2022/02/02 12:58:12;;;;;;;1.02;0.60;;;9.50;17.70;;;;;;5033269;28;20380;-72
2022/02/02 13:03:12;;;;;;;1.30;0.52;;;9.60;16.80;;;;;;5035957;28;20048;-71
2022/02/02 13:05:40;;;;;;;0.50;0.50;;;9.60;17.10;;;;;;5038990;28;20067;-72
2022/02/02 13:08:07;;;;;;;0.70;0.70;;;9.60;16.70;;;;;;5052440;28;20538;-72
2022/02/02 13:10:35;;;;;;;0.60;0.60;;;9.60;16.80;;;;;;5053026;28;20202;-72
2022/02/02 13:13:10;;;;;;;1.60;0.60;;;9.60;16.60;;;;;;5053471;28;20078;-72
2022/02/02 13:15:51;;;;;;;0.40;0.40;;;9.50;16.90;;;;;;5053751;28;20036;-72
2022/02/02 13:18:33;;;;;;;1.95;0.90;;;9.60;14.80;;;;;;5050433;28;20029;-72
2022/02/02 13:21:08;;;;;;;1.23;0.60;;;9.70;15.00;;;;;;5052631;28;20472;-72
2022/02/02 13:26:32;;;;;;;0.70;0.50;;;9.70;16.70;;;;;;5053261;28;20028;-71
2022/02/02 13:31:48;;;;;;;0.85;0.70;;;9.80;16.00;;;;;;5052619;28;20041;-71
2022/02/02 13:34:34;;;;;;;0.32;0.32;;;9.90;15.60;;;;;;5050042;28;20033;-71
2022/02/02 13:37:37;;;;;;;0.68;0.40;;;9.90;15.20;;;;;;5050630;28;20068;-71
2022/02/02 13:51:31;;;;;;;1.00;0.90;;;9.70;15.30;;;;;;5053002;28;20082;-71
2022/02/02 13:54:19;;;;;;;0.50;0.45;;;9.60;16.00;;;;;;5056014;28;20039;-72
2022/02/02 13:59:42;;;;;;;0.63;0.50;;;9.60;16.80;;;;;;5036756;28;20047;-70
2022/02/02 14:07:48;;;;;;;0.38;0.38;;;9.40;18.00;;;;;;5035498;28;20025;-71
2022/02/02 14:31:36;;;;;;;0.43;0.43;;;9.60;16.30;;;;;;5036018;28;20091;-72
2022/02/02 14:34:03;;;;;;;0.50;0.40;;;9.50;18.60;;;;;;5041375;28;20037;-71
2022/02/02 14:36:34;;;;;;;0.70;0.65;;;9.50;18.60;;;;;;5054957;28;20075;-71
2022/02/02 14:39:14;;;;;;;0.63;0.40;;;9.50;15.40;;;;;;5054673;28;20036;-72
2022/02/02 14:41:51;;;;;;;0.40;0.40;;;9.50;15.80;;;;;;5053146;28;20035;-72
2022/02/02 14:53:23;;;;;;;2.28;2.05;;;9.40;17.00;;;;;;5046804;28;20059;-70
2022/02/02 15:23:47;;;;;;;0.57;0.50;;;9.30;16.70;;;;;;5049267;28;20071;-70
2022/02/02 15:27:39;;;;;;;0.43;0.43;;;9.20;17.80;;;;;;5052826;28;20558;-70
2022/02/02 15:32:54;;;;;;;0.43;0.43;;;9.10;17.70;;;;;;5023588;28;20050;-70
2022/02/02 15:35:21;;;;;;;1.75;0.40;;;9.20;17.90;;;;;;5054498;28;20033;-70
2022/02/02 15:38:01;;;;;;;0.32;0.30;;;9.20;17.40;;;;;;5053674;28;20479;-70
2022/02/02 15:40:44;;;;;;;0.60;0.60;;;9.10;17.40;;;;;;5045244;28;20033;-70
2022/02/02 15:59:11;;;;;;;0.50;0.40;;;8.90;18.30;;;;;;5035607;28;20041;-70
2022/02/02 16:04:31;;;;;;;0.50;0.50;;;9.00;17.00;;;;;;5035179;28;20037;-70
2022/02/02 16:07:01;;;;;;;1.00;0.47;;;8.90;17.00;;;;;;5035376;28;20345;-70
2022/02/02 16:09:34;;;;;;;0.65;0.50;;;8.90;17.60;;;;;;5035317;28;20029;-70
2022/02/02 16:12:07;;;;;;;0.22;0.22;;;8.70;17.50;;;;;;5035294;28;20041;-70
2022/02/02 16:14:48;;;;;;;0.32;0.32;;;8.80;17.00;;;;;;5035044;28;20044;-70
2022/02/02 16:17:41;;;;;;;0.40;0.40;;;8.70;17.60;;;;;;5035505;28;20033;-70
2022/02/02 16:36:38;;;;;;;1.25;0.60;;;8.40;19.50;;;;;;5034008;28;20099;-70
2022/02/02 16:44:19;;;;;;;3.75;2.88;;;8.00;22.00;;;;;;5013493;28;20053;-70
2022/02/02 16:46:45;;;;;;;11.23;8.77;;;7.80;24.70;;;;;;5041215;28;20118;-70
2022/02/02 16:49:11;;;;;;;2.45;2.05;;;7.70;27.50;;;;;;5054891;28;20071;-70
2022/02/02 16:51:55;;;;;;;18.92;14.57;;;7.80;27.80;;;;;;5045492;28;20044;-70
2022/02/02 16:54:33;;;;;;;3.20;2.90;;;7.70;29.30;;;;;;5040531;28;20040;-70
2022/02/02 17:38:11;;;;;;;1.52;1.08;;;7.20;86.80;;;;;;5049076;28;20037;-70
2022/02/02 17:40:52;;;;;;;3.28;2.00;;;7.10;85.60;;;;;;5046995;28;20044;-70
2022/02/02 17:44:05;;;;;;;5.40;2.80;;;7.30;81.30;;;;;;5047795;28;20550;-71
2022/02/02 18:20:49;;;;;;;1.23;1.13;;;7.00;96.40;;;;;;5036811;28;20519;-70
2022/02/02 18:28:44;;;;;;;2.85;1.13;;;7.00;99.90;;;;;;5036681;28;20021;-70
2022/02/02 18:31:29;;;;;;;1.13;1.02;;;7.00;98.30;;;;;;5034932;28;20029;-70
2022/02/02 18:45:09;;;;;;;1.85;1.58;;;7.00;97.00;;;;;;5036704;28;20132;-71
2022/02/02 19:00:21;;;;;;;2.15;1.40;;;7.00;93.70;;;;;;5057540;28;20028;-70
2022/02/02 19:08:02;;;;;;;1.30;1.20;;;6.70;99.50;;;;;;5056420;28;20021;-71
2022/02/02 19:40:39;;;;;;;1.92;1.60;;;6.90;99.90;;;;;;5050036;28;20108;-71
2022/02/02 19:56:55;;;;;;;1.55;1.45;;;7.10;91.70;;;;;;5053635;28;20036;-71
2022/02/02 20:10:49;;;;;;;1.92;1.33;;;7.20;75.30;;;;;;5061835;28;20028;-69
2022/02/02 20:12:52;;;;;;;1.10;1.10;;;7.30;74.50;;;;;;5042962;28;20037;-70
2022/02/02 20:15:18;;;;;;;3.10;1.60;;;7.30;70.50;;;;;;5054012;28;20510;-70
2022/02/02 20:17:45;;;;;;;2.47;1.83;;;7.30;71.20;;;;;;5053694;28;20033;-70
2022/02/02 20:20:15;;;;;;;1.88;1.30;;;7.30;63.80;;;;;;5052721;28;20041;-69
2022/02/02 20:22:42;;;;;;;2.05;1.58;;;7.30;60.10;;;;;;5051167;28;20041;-68
2022/02/02 20:25:09;;;;;;;1.20;1.10;;;7.30;57.00;;;;;;5052675;28;20041;-69
2022/02/02 20:27:36;;;;;;;1.25;1.15;;;7.30;55.00;;;;;;5054374;28;20056;-68
2022/02/02 20:30:07;;;;;;;1.25;1.15;;;7.30;57.90;;;;;;5053739;28;20036;-68
2022/02/02 20:32:33;;;;;;;1.42;1.33;;;7.40;83.80;;;;;;5053715;28;20029;-69
2022/02/02 20:34:59;;;;;;;1.50;1.40;;;7.30;70.40;;;;;;5053685;28;20119;-68
2022/02/02 20:37:27;;;;;;;1.70;1.60;;;7.30;62.50;;;;;;5048918;28;20037;-69
2022/02/02 20:40:04;;;;;;;1.67;1.58;;;7.30;61.10;;;;;;5049081;28;20095;-69
2022/02/02 20:42:37;;;;;;;2.17;1.70;;;7.20;63.70;;;;;;5043046;28;20045;-69
2022/02/02 21:13:40;;;;;;;3.85;2.72;;;7.10;34.00;;;;;;5043141;28;20112;-70
2022/02/02 21:14:46;;;;;;;3.40;2.35;;;7.40;32.70;;;;;;5048112;28;20048;-70
2022/02/02 21:17:25;;;;;;;3.65;2.50;;;7.10;52.40;;;;;;5053250;28;20353;-70
2022/02/02 21:20:31;;;;;;;2.30;2.03;;;7.10;49.30;;;;;;5053843;28;20491;-70
2022/02/02 21:22:53;;;;;;;2.95;2.55;;;7.00;53.90;;;;;;5049282;28;20052;-70
2022/02/02 21:28:07;;;;;;;2.38;2.13;;;7.10;45.10;;;;;;5053218;28;20082;-70
2022/02/02 21:30:34;;;;;;;2.03;1.85;;;7.20;44.20;;;;;;5052631;28;20353;-70
2022/02/02 21:33:01;;;;;;;1.60;1.50;;;7.10;40.10;;;;;;5052802;28;20492;-70
2022/02/02 21:35:28;;;;;;;1.88;1.40;;;7.20;38.30;;;;;;5052340;28;20029;-70
2022/02/02 21:38:02;;;;;;;2.08;1.65;;;7.10;39.10;;;;;;5051269;28;20032;-71
2022/02/02 21:40:29;;;;;;;1.98;1.73;;;7.20;38.60;;;;;;5052106;28;20551;-70
2022/02/02 21:42:56;;;;;;;2.45;1.70;;;7.10;38.90;;;;;;5052199;28;20138;-70
2022/02/02 21:45:24;;;;;;;1.95;1.70;;;7.10;35.40;;;;;;5052883;28;20025;-70
2022/02/02 21:47:51;;;;;;;1.30;1.10;;;7.10;34.60;;;;;;5053033;28;20028;-71
2022/02/02 21:50:19;;;;;;;1.30;1.17;;;7.20;31.80;;;;;;5053348;28;20063;-71
2022/02/02 21:52:46;;;;;;;1.65;1.30;;;7.50;32.00;;;;;;5053032;28;20124;-71
2022/02/02 21:55:13;;;;;;;2.40;1.65;;;7.40;29.60;;;;;;5054116;28;20065;-72
2022/02/02 21:57:40;;;;;;;2.03;1.60;;;7.20;28.60;;;;;;5054141;28;20032;-72
2022/02/02 22:00:11;;;;;;;2.15;1.58;;;7.10;29.10;;;;;;5053128;28;20029;-72
2022/02/02 22:02:37;;;;;;;3.40;2.25;;;7.10;28.60;;;;;;5051496;28;20043;-72
2022/02/02 22:05:05;;;;;;;2.28;1.70;;;7.10;29.80;;;;;;5052399;28;20045;-72
2022/02/02 22:07:32;;;;;;;3.05;2.28;;;7.00;29.10;;;;;;5052494;28;20036;-71
2022/02/02 22:09:59;;;;;;;3.72;2.47;;;7.00;29.00;;;;;;5053719;28;20413;-72
2022/02/02 22:12:26;;;;;;;6.05;3.20;;;7.00;28.50;;;;;;5053762;28;20119;-72
2022/02/02 22:14:53;;;;;;;3.83;2.60;;;7.00;28.00;;;;;;5057657;28;20037;-72
2022/02/02 22:17:21;;;;;;;3.25;2.38;;;6.90;27.50;;;;;;5057695;28;20064;-72
2022/02/02 22:19:54;;;;;;;3.50;2.60;;;6.70;28.60;;;;;;5057716;28;20071;-72
2022/02/02 22:22:20;;;;;;;6.60;3.42;;;6.60;27.20;;;;;;5057685;28;20045;-72
2022/02/02 22:24:46;;;;;;;3.90;2.38;;;6.50;28.10;;;;;;5057507;28;20040;-72
2022/02/02 22:27:12;;;;;;;8.85;4.70;;;6.40;28.60;;;;;;5057563;28;20380;-72
2022/02/02 22:29:38;;;;;;;4.68;2.80;;;6.80;26.60;;;;;;5057647;28;20503;-72
2022/02/02 22:32:04;;;;;;;4.63;3.05;;;6.90;25.20;;;;;;5057483;28;20426;-71
2022/02/02 22:34:30;;;;;;;2.55;1.80;;;7.00;23.60;;;;;;5056983;28;20052;-71
2022/02/02 22:36:57;;;;;;;5.60;3.17;;;7.00;23.80;;;;;;5057091;28;20033;-72
2022/02/02 22:39:23;;;;;;;4.88;2.83;;;6.80;23.90;;;;;;5057661;28;20036;-72
2022/02/02 22:41:49;;;;;;;3.28;2.00;;;6.60;27.20;;;;;;5057213;28;20123;-72
2022/02/02 22:44:16;;;;;;;6.82;4.00;;;6.50;24.20;;;;;;5056336;28;20117;-72
2022/02/02 22:46:43;;;;;;;3.67;2.10;;;6.40;23.80;;;;;;5056561;28;20104;-72
2022/02/02 22:49:10;;;;;;;14.93;10.88;;;6.20;24.40;;;;;;5056044;28;20033;-72
2022/02/02 22:51:36;;;;;;;3.15;2.35;;;6.10;24.70;;;;;;5056711;28;20031;-72
2022/02/02 22:54:03;;;;;;;11.95;8.75;;;5.90;25.90;;;;;;5056750;28;20123;-72
2022/02/02 22:56:29;;;;;;;4.38;2.25;;;6.00;26.50;;;;;;5056463;28;20028;-71
2022/02/02 22:58:57;;;;;;;4.72;2.70;;;5.90;27.20;;;;;;5056740;28;20479;-71
2022/02/02 23:01:26;;;;;;;20.20;11.90;;;5.70;27.90;;;;;;5057054;28;20384;-71
2022/02/02 23:03:53;;;;;;;11.48;6.47;;;5.80;28.40;;;;;;5056332;28;20052;-71
2022/02/02 23:06:19;;;;;;;3.55;2.47;;;5.70;29.00;;;;;;5056446;28;20025;-71
2022/02/02 23:08:45;;;;;;;4.78;4.07;;;5.50;29.40;;;;;;5056534;28;20048;-71
2022/02/02 23:11:11;;;;;;;3.53;1.90;;;5.40;31.30;;;;;;5056841;28;20029;-71
2022/02/02 23:13:38;;;;;;;2.13;1.13;;;5.30;29.60;;;;;;5056477;28;20367;-71
2022/02/02 23:16:11;;;;;;;3.47;1.63;;;5.40;28.40;;;;;;5056908;28;20037;-72
2022/02/02 23:18:39;;;;;;;6.40;4.97;;;5.30;30.80;;;;;;5055791;28;20069;-72
2022/02/02 23:21:09;;;;;;;5.75;3.40;;;5.30;31.40;;;;;;5057087;28;20118;-72
2022/02/02 23:23:48;;;;;;;2.58;1.95;;;5.20;31.20;;;;;;5056000;28;20047;-71
2022/02/02 23:26:15;;;;;;;2.60;1.77;;;5.00;30.60;;;;;;5055584;28;20029;-72
2022/02/02 23:28:46;;;;;;;4.97;3.90;;;5.00;31.90;;;;;;5056185;28;20041;-72
2022/02/02 23:31:15;;;;;;;7.65;4.72;;;4.90;32.60;;;;;;5056001;28;20108;-72
2022/02/02 23:33:42;;;;;;;12.63;7.68;;;4.90;34.80;;;;;;5055759;28;20037;-71
2022/02/02 23:36:09;;;;;;;9.68;6.72;;;4.80;35.30;;;;;;5056430;28;20028;-72
2022/02/02 23:38:35;;;;;;;21.85;12.18;;;4.90;35.30;;;;;;5055597;28;20041;-72
2022/02/02 23:43:28;;;;;;;22.90;10.30;;;4.90;37.40;;;;;;5055671;28;20217;-72
2022/02/02 23:46:00;;;;;;;13.32;7.07;;;4.90;36.00;;;;;;5056013;28;20108;-71
2022/02/02 23:48:30;;;;;;;8.07;4.25;;;5.10;33.10;;;;;;5055967;28;20037;-71
2022/02/02 23:51:06;;;;;;;8.90;4.95;;;5.30;30.30;;;;;;5055867;28;20502;-71
2022/02/02 23:53:39;;;;;;;7.00;4.40;;;5.40;27.10;;;;;;5055330;28;20395;-71
2022/02/02 23:58:55;;;;;;;7.72;4.15;;;5.30;26.70;;;;;;5024082;28;20048;-71
